AirNav   Air Wisconsin pilot careers
 
 1427 users online  

PAAN Gold King Creek Airport
Fairbanks, Alaska, USA


FAA INFORMATION EFFECTIVE 01 FEBRUARY 2018

Location

FAA Identifier: AK7
Lat/Long: 64-11-53.0000N / 147-55-43.0000W
64-11.883333N / 147-55.716667W
64.1980556 / -147.9286111
(estimated)
Elevation: 1720 ft. / 524 m (estimated)
Variation: 25E (1965)
From city: 39 miles SE of FAIRBANKS, AK
Time zone: UTC -9 (UTC -8 during Daylight Saving Time)
Zip code: 99743

Airport Operations

Airport use: Open to the public
Activation date: 02/2001
Control tower: no
ARTCC: ANCHORAGE CENTER
FSS: FAIRBANKS FLIGHT SERVICE STATION [907-474-0788]
NOTAMs facility: FAI (NOTAM-D service available)
Attendance: UNATNDD
Wind indicator: yes
Segmented circle: no

Airport Communications

CTAF: 122.9

Nearby radio navigation aids

VOR radial/distance  VOR name  Freq  Var
FAIr156/36.2FAIRBANKS VORTAC108.6021E
ENNr107/37.9NENANA VORTAC115.8021E

 
NDB name  Hdg/Dist  Freq  Var  ID
ICE POOL107/36.452518EICW .. -.-. .--

Airport Services

Runway Information

Runway 9/27

Dimensions: 2558 x 17 ft. / 780 x 5 m
Surface: gravel/dirt, in fair condition
ROCKS UP TO 6 INCHES ON RY SFC.
RUNWAY 9  RUNWAY 27
Latitude: 64-11.993708N64-11.772323N
Longitude: 147-56.125273W147-55.307022W
Traffic pattern: leftleft
Runway heading: 097 magnetic, 122 true277 magnetic, 302 true
Obstructions: 32 ft. trees25 ft. brush, 90 ft. left and right of centerline

Airport Ownership and Management from official FAA records

Ownership: Publicly-owned
Owner: ALASKA DOT&PF NORTHERN REGION
2301 PEGER ROAD
FAIRBANKS, AK 99709
Phone 907-451-2200
Manager: TOM WILLIAMS
2301 PEGER ROAD
FAIRBANKS, AK 99709
Phone (907) 451-5280

Airport Operational Statistics

Aircraft based on the field: 1
Single engine airplanes: 1
    
Aircraft operations: 50/year *
100% local general aviation
* for 12-month period ending 31 December 2014

Additional Remarks

RY CONDITION NOT MONITORED; RECOMMEND VISUAL INSP PRIOR TO LANDING.
NO SVCS AVBL.
40 FT TREES ON BOTH SIDES OF RY WITHIN 50 FT OF CENTERLINE.
RY SUITABLE FOR HIGH WING ACFT ONLY.
RY 27 HAS A 500 FT SAFETY AREA WITH TREES UP TO 3 FT GROWING ON SFC.

Instrument Procedures

There are no published instrument procedures at PAAN.

Some nearby airports with instrument procedures:

PAHV - Healy River Airport (34 nm SW)
PAEI - Eielson Air Force Base (35 nm NE)
PANN - Nenana Municipal Airport (36 nm NW)
PAFA - Fairbanks International Airport (37 nm N)
PAFB - Ladd Army Airfield (39 nm N)
 
Loc | Ops | Rwys | IFR | FBO | Links
Com | Nav | Svcs | Stats | Notes

Crowley
 
Area around PAAN (Gold King Creek Airport)
 
Road maps at: MapQuest Bing Google
 
Aerial photo
WARNING: Photo may not be current or correct
Aerial photo of PAAN (Gold King Creek Airport)
Photo taken 18-Feb-2012
looking west.

Do you have a better or more recent aerial photo of Gold King Creek Airport that you would like to share? If so, please send us your photo.

 
Sectional chart

 
Airport distance calculator
Flying to Gold King Creek Airport? Find the distance to fly.

From to PAAN

Sunrise and sunset
Times for 19-Feb-2018
 Local
(UTC-9)
 Zulu
(UTC)
Morning civil twilight07:4416:44
Sunrise08:3417:34
Sunset17:3702:37
Evening civil twilight18:2703:27

Current date and time
Zulu (UTC)  19-Feb-2018 18:51:05
Local (UTC-9)  19-Feb-2018 09:51:05
 
METAR
PAEI 
35nm NE 
191811Z AUTO 17007KT 10SM SCT006 BKN010 OVC017 M04/M05 A3038 RMK AO2 CIG 008V010 SLP300 VISNO RWY32 $
PANN 
37nm NW 
191753Z AUTO 10003KT 10SM OVC037 M03/M04 A3036 RMK AO2 SLP292 60000 T10281039 11017 21039 57007 TSNO
PAFA 
37nm N 
191753Z 00000KT 5SM -SN BR BKN013 OVC028 M06/M07 A3039 RMK AO2 SLP302 T10561067 11056 21072 56005 $
PAIN 
38nm SW 
191756Z AUTO 00000KT 10SM OVC027 M09/M11 A3034 RMK AO2 SLP317 60000 T10891106 11083 21094 58009 FZRANO
PAFB 
39nm N 
191835Z AUTO 06003KT 9SM OVC006 M06/M06 A3039 RMK AO2 SNE05 SLP301
TAF
PAEI 
35nm NE 
191743Z 1917/2018 VRB06KT 9999 SCT005 BKN015 620157 QNH3033INS BECMG 2015/2016 VRB06KT 6000 -SN BR SCT015 BKN100 QNH3027INS TXM02/2000Z TNM07/2015Z
PAFA 
37nm N 
191720Z 1918/2024 33003KT 5SM -SN BR BKN014 OVC025 FM192100 VRB03KT P6SM SCT015 OVC025 FM201400 25008KT 2SM -SN OVC020 FM201600 29010KT 1/2SM SN FG OVC007 FM202100 20011KT P6SM BKN015
NOTAMs
Click for the latest NOTAMs
NOTAMs are issued by the DoD/FAA and will open in a separate window not controlled by AirNav.

 

 
 

Would you like to see your business listed on this page?

 If your business provides an interesting product or service to pilots, flight crews, aircraft, or users of the Gold King Creek Airport, you should consider listing it here.  To start the listing process, click on the button below
 
Add a business
 

Other Pages about Gold King Creek Airport

Update a link
 
Copyright © AirNav, LLC. All rights reserved. Privacy Policy  Contact